createdAt,value
2022-12-23T00:06:33.639Z,27.53
2022-12-23T00:16:36.274Z,26.50
2022-12-23T00:26:38.403Z,27.63
2022-12-23T00:36:39.967Z,29.10
2022-12-23T00:46:41.615Z,30.60
2022-12-23T00:56:43.220Z,31.30
2022-12-23T01:06:44.791Z,35.10
2022-12-23T01:16:46.511Z,34.73
2022-12-23T01:26:48.055Z,34.17
2022-12-23T01:36:49.668Z,34.55
2022-12-23T01:46:51.586Z,40.37
2022-12-23T01:56:53.371Z,47.23
2022-12-23T02:06:54.935Z,44.77
2022-12-23T02:17:09.866Z,41.70
2022-12-23T02:27:28.603Z,39.33
2022-12-23T02:37:36.905Z,36.40
2022-12-23T02:47:44.455Z,36.83
2022-12-23T02:57:49.816Z,34.70
2022-12-23T03:07:53.676Z,32.03
2022-12-23T03:18:16.923Z,31.30
2022-12-23T03:28:27.664Z,31.10
2022-12-23T03:38:32.982Z,26.50
2022-12-23T03:48:52.034Z,24.35
2022-12-23T03:59:02.435Z,20.67
2022-12-23T04:09:05.484Z,18.20
2022-12-23T04:19:07.044Z,18.05
2022-12-23T04:29:08.595Z,16.67
2022-12-23T04:39:10.119Z,18.13
2022-12-23T04:49:11.725Z,16.88
2022-12-23T04:59:13.353Z,19.77
2022-12-23T05:09:15.099Z,19.97
2022-12-23T05:19:19.637Z,19.87
2022-12-23T05:29:21.182Z,22.50
2022-12-23T05:39:22.719Z,24.75
2022-12-23T05:49:24.247Z,26.07
2022-12-23T05:59:30.721Z,26.73
2022-12-23T06:09:33.021Z,25.53
2022-12-23T06:19:34.555Z,28.27
2022-12-23T06:29:36.249Z,29.90
2022-12-23T06:39:37.801Z,28.70
2022-12-23T06:49:40.628Z,30.83
2022-12-23T06:59:42.187Z,31.63
2022-12-23T07:09:43.766Z,28.63
2022-12-23T07:19:45.343Z,29.10
2022-12-23T07:29:46.901Z,32.77
2022-12-23T07:39:48.512Z,24.73
2022-12-23T07:49:50.119Z,22.88
2022-12-23T07:59:51.768Z,23.07
2022-12-23T08:09:53.334Z,23.37
2022-12-23T08:19:55.015Z,28.98
2022-12-23T08:29:56.533Z,26.07
2022-12-23T08:39:58.095Z,27.80
2022-12-23T08:49:59.654Z,28.83
2022-12-23T09:00:01.216Z,29.30
2022-12-23T09:10:02.783Z,28.95
2022-12-23T09:20:04.797Z,34.57
2022-12-23T09:30:07.097Z,24.23
2022-12-23T09:40:12.708Z,25.63
2022-12-23T09:50:23.708Z,26.30
2022-12-23T10:00:26.141Z,27.05
2022-12-23T10:10:37.539Z,28.57
2022-12-23T10:20:47.371Z,34.57
2022-12-23T10:42:01.871Z,36.80
2022-12-23T10:52:11.246Z,37.15
2022-12-23T11:02:13.147Z,35.20
2022-12-23T11:12:14.989Z,37.13
2022-12-23T11:22:25.392Z,34.83
2022-12-23T11:32:28.589Z,30.40
2022-12-23T11:42:30.953Z,29.05
2022-12-23T11:52:33.485Z,27.57
2022-12-23T12:02:43.259Z,26.70
2022-12-23T12:12:48.804Z,26.42
2022-12-23T12:23:03.449Z,26.07
2022-12-23T12:33:21.143Z,24.75
2022-12-23T12:43:56.376Z,24.10
2022-12-23T12:54:05.169Z,21.77
2022-12-23T13:04:27.365Z,23.60
2022-12-23T13:14:50.799Z,24.67
2022-12-23T13:25:20.498Z,23.95
2022-12-23T13:35:34.152Z,22.63
2022-12-23T13:45:38.643Z,24.10
2022-12-23T13:56:05.437Z,21.60
2022-12-23T14:06:30.371Z,20.20
2022-12-23T14:16:31.898Z,19.83
2022-12-23T14:26:48.971Z,19.03
2022-12-23T14:37:21.247Z,17.80
2022-12-23T14:47:35.705Z,20.83
2022-12-23T14:57:37.436Z,20.53
2022-12-23T15:07:42.847Z,22.75
2022-12-23T15:17:44.834Z,23.47
2022-12-23T15:27:46.564Z,23.60
2022-12-23T15:37:49.736Z,23.38
2022-12-23T15:47:51.573Z,25.67
2022-12-23T15:57:54.530Z,26.15
2022-12-23T16:08:15.331Z,26.23
2022-12-23T16:18:21.688Z,28.83
2022-12-23T16:28:29.161Z,28.35
2022-12-23T16:38:30.723Z,27.70
2022-12-23T16:48:47.974Z,28.53
2022-12-23T16:58:50.216Z,34.50
2022-12-23T17:08:52.661Z,37.67
2022-12-23T17:18:54.217Z,37.35
2022-12-23T17:28:55.771Z,38.30
2022-12-23T17:38:57.386Z,47.40
2022-12-23T17:48:59.200Z,41.37
2022-12-23T17:59:00.732Z,32.00
2022-12-23T18:09:02.275Z,30.48
2022-12-23T18:19:03.857Z,30.67
2022-12-23T18:29:05.435Z,31.60
2022-12-23T18:39:07.021Z,33.60
2022-12-23T18:49:08.580Z,35.57
2022-12-23T18:59:27.179Z,36.47
2022-12-23T19:09:31.060Z,36.17
2022-12-23T19:19:32.623Z,35.20
2022-12-23T19:29:34.170Z,35.90
2022-12-23T19:39:35.678Z,37.10
2022-12-23T19:49:37.263Z,34.63
2022-12-23T19:59:38.823Z,36.37
2022-12-23T20:09:40.644Z,34.53
2022-12-23T20:19:46.189Z,33.80
2022-12-23T20:29:48.111Z,34.90
2022-12-23T20:39:49.671Z,35.60
2022-12-23T20:49:51.189Z,36.40
2022-12-23T20:59:52.751Z,30.87
2022-12-23T21:09:54.267Z,32.42
2022-12-23T21:19:57.431Z,30.13
2022-12-23T21:29:59.798Z,29.40
2022-12-23T21:40:01.365Z,28.77
2022-12-23T21:50:03.222Z,30.47
2022-12-23T22:00:05.385Z,29.70
2022-12-23T22:10:07.743Z,28.17
2022-12-23T22:20:09.747Z,27.53
2022-12-23T22:30:11.492Z,26.40
2022-12-23T22:40:13.302Z,25.33
2022-12-23T22:50:15.072Z,24.08
2022-12-23T23:00:16.905Z,22.83
2022-12-23T23:10:18.487Z,23.40
2022-12-23T23:20:20.027Z,23.23
2022-12-23T23:30:21.573Z,23.93
2022-12-23T23:40:23.100Z,23.77
2022-12-23T23:50:24.611Z,25.00
